Time,TemperatureF,DewpointF,PressureIn,WindDirection,WindDirectionDegrees,WindSpeedMPH,WindSpeedGustMPH,Humidity,HourlyPrecipIn,Conditions,Clouds,dailyrainin,SolarRadiationWatts/m^2,SoftwareType,DateUTC
2013-02-20 00:00:00,46.2,45.1,29.96,North,11,4.6,4.6,96,0.00,RA,SKC,0.00,0.0,WeatherDisplay:10.37,2013-02-20 05:00:00,
2013-02-20 00:01:00,46.1,45.0,29.96,NE,56,5.8,5.8,96,0.00,RA,SKC,0.00,0.0,WeatherDisplay:10.37,2013-02-20 05:01:00,
2013-02-20 00:03:00,45.9,44.8,29.96,NNE,27,5.8,5.8,96,0.00,RA,SKC,0.00,0.0,WeatherDisplay:10.37,2013-02-20 05:03:00,
2013-02-20 00:05:00,45.6,44.5,29.96,NE,35,4.6,4.6,96,0.00,RA,SKC,0.00,0.0,WeatherDisplay:10.37,2013-02-20 05:05:00,
2013-02-20 00:10:00,45.8,44.7,29.96,North,10,4.6,4.6,96,0.00,CLR,SKC,0.00,0.0,WeatherDisplay:10.37,2013-02-20 05:10:00,
2013-02-20 00:15:00,45.4,44.3,29.96,NNE,24,4.6,4.6,96,0.00,CLR,SKC,0.00,0.0,WeatherDisplay:10.37,2013-02-20 05:15:00,
2013-02-20 00:20:00,45.6,44.8,29.96,NW,323,5.8,5.8,97,0.00,CLR,SKC,0.00,0.0,WeatherDisplay:10.37,2013-02-20 05:20:00,
2013-02-20 00:25:00,45.4,44.3,29.96,East,92,5.8,5.8,96,0.00,CLR,SKC,0.00,0.0,WeatherDisplay:10.37,2013-02-20 05:25:00,
2013-02-20 00:30:00,45.2,44.1,29.96,NNE,24,6.9,6.9,96,0.00,CLR,SKC,0.00,0.0,WeatherDisplay:10.37,2013-02-20 05:30:00,
2013-02-20 00:35:00,45.4,44.3,29.97,NNE,27,7.3,7.3,96,0.00,CLR,SKC,0.00,0.0,WeatherDisplay:10.37,2013-02-20 05:35:00,
2013-02-20 00:40:00,45.5,44.4,29.97,NNE,16,6.9,6.9,96,0.00,CLR,SKC,0.00,0.0,WeatherDisplay:10.37,2013-02-20 05:40:00,
2013-02-20 00:45:00,45.0,43.9,29.97,NNE,17,7.6,7.6,96,0.00,CLR,SKC,0.00,0.0,WeatherDisplay:10.37,2013-02-20 05:45:00,
2013-02-20 00:50:00,45.5,44.4,29.97,NNE,31,6.9,6.9,96,0.00,CLR,SKC,0.00,0.0,WeatherDisplay:10.37,2013-02-20 05:50:00,
2013-02-20 00:55:00,45.4,44.1,29.97,NE,51,6.9,6.9,95,0.00,CLR,SKC,0.00,0.0,WeatherDisplay:10.37,2013-02-20 05:55:00,
2013-02-20 01:00:00,45.7,44.4,29.97,NE,38,4.6,4.6,95,0.00,CLR,SKC,0.00,0.0,WeatherDisplay:10.37,2013-02-20 06:00:00,
2013-02-20 01:05:00,45.4,44.1,29.97,North,349,6.9,6.9,95,0.00,CLR,SKC,0.00,0.0,WeatherDisplay:10.37,2013-02-20 06:05:00,
2013-02-20 01:10:00,45.2,43.9,29.98,NNE,17,5.8,5.8,95,0.00,CLR,SKC,0.00,0.0,WeatherDisplay:10.37,2013-02-20 06:10:00,
2013-02-20 01:16:00,45.0,43.7,29.98,North,11,4.6,4.8,95,0.00,CLR,SKC,0.00,0.0,WeatherDisplay:10.37,2013-02-20 06:16:00,
2013-02-20 01:21:00,45.0,43.4,29.98,NE,34,6.9,6.9,94,0.00,CLR,SKC,0.00,0.0,WeatherDisplay:10.37,2013-02-20 06:21:00,
2013-02-20 01:26:00,45.2,43.3,29.98,NE,37,9.2,9.2,93,0.00,CLR,SKC,0.00,0.0,WeatherDisplay:10.37,2013-02-20 06:26:00,
2013-02-20 01:31:00,44.9,43.0,29.98,ENE,58,8.1,8.1,93,0.00,CLR,SKC,0.00,0.0,WeatherDisplay:10.37,2013-02-20 06:31:00,
2013-02-20 01:36:00,44.9,42.7,29.99,East,99,6.9,6.9,92,0.00,CLR,SKC,0.00,0.0,WeatherDisplay:10.37,2013-02-20 06:36:00,
2013-02-20 01:41:00,44.9,42.4,29.98,ENE,72,6.9,6.9,91,0.00,CLR,SKC,0.00,0.0,WeatherDisplay:10.37,2013-02-20 06:41:00,
2013-02-20 01:46:00,44.7,42.2,29.99,East,83,4.6,4.6,91,0.00,CLR,SKC,0.00,0.0,WeatherDisplay:10.37,2013-02-20 06:46:00,
2013-02-20 01:52:00,44.6,41.6,29.99,ENE,66,6.9,6.9,89,0.00,CLR,SKC,0.00,0.0,WeatherDisplay:10.37,2013-02-20 06:52:00,
2013-02-20 01:57:00,44.6,41.6,29.99,NE,40,4.6,4.6,89,0.00,CLR,SKC,0.00,0.0,WeatherDisplay:10.37,2013-02-20 06:57:00,
2013-02-20 02:02:00,44.5,41.2,29.99,NNE,32,5.1,6.2,88,0.00,CLR,SKC,0.00,0.0,WeatherDisplay:10.37,2013-02-20 07:02:00,
2013-02-20 02:07:00,44.3,40.7,29.99,East,85,8.1,8.1,87,0.00,CLR,SKC,0.00,0.0,WeatherDisplay:10.37,2013-02-20 07:07:00,
2013-02-20 02:12:00,44.2,40.3,29.99,NE,35,9.2,9.2,86,0.00,CLR,SKC,0.00,0.0,WeatherDisplay:10.37,2013-02-20 07:12:00,
2013-02-20 02:17:00,44.3,40.4,29.99,East,83,10.4,10.4,86,0.00,CLR,SKC,0.00,0.0,WeatherDisplay:10.37,2013-02-20 07:17:00,
2013-02-20 02:22:00,44.0,39.8,29.99,East,86,7.5,7.5,85,0.00,CLR,SKC,0.00,0.0,WeatherDisplay:10.37,2013-02-20 07:22:00,
2013-02-20 02:27:00,43.6,39.1,29.99,East,85,10.4,10.4,84,0.00,CLR,SKC,0.00,0.0,WeatherDisplay:10.37,2013-02-20 07:27:00,
2013-02-20 02:32:00,44.1,39.3,29.99,East,89,12.7,12.7,83,0.00,CLR,SKC,0.00,0.0,WeatherDisplay:10.37,2013-02-20 07:32:00,
2013-02-20 02:37:00,43.5,38.4,29.99,SE,133,7.5,7.5,82,0.00,CLR,SKC,0.00,0.0,WeatherDisplay:10.37,2013-02-20 07:37:00,
2013-02-20 02:42:00,43.2,37.4,29.99,NE,54,8.1,8.1,80,0.00,CLR,SKC,0.00,0.0,WeatherDisplay:10.37,2013-02-20 07:42:00,
2013-02-20 02:47:00,42.9,36.8,29.99,ESE,102,12.7,12.7,79,0.00,CLR,SKC,0.00,0.0,WeatherDisplay:10.37,2013-02-20 07:47:00,
2013-02-20 02:52:00,42.6,36.2,29.99,East,95,15.0,15.0,78,0.00,CLR,SKC,0.00,0.0,WeatherDisplay:10.37,2013-02-20 07:52:00,
2013-02-20 02:57:00,42.9,36.2,29.99,East,95,11.2,11.2,77,0.00,CLR,SKC,0.00,0.0,WeatherDisplay:10.37,2013-02-20 07:57:00,
2013-02-20 03:05:00,42.6,35.2,29.99,East,80,13.8,13.8,75,0.00,CLR,SKC,0.00,0.0,WeatherDisplay:10.37,2013-02-20 08:05:00,
2013-02-20 03:10:00,42.0,34.3,29.99,SE,128,9.2,9.2,74,0.00,CLR,SKC,0.00,0.0,WeatherDisplay:10.37,2013-02-20 08:10:00,
2013-02-20 03:15:00,42.2,34.5,29.99,ESE,121,13.1,13.1,74,0.00,CLR,SKC,0.00,0.0,WeatherDisplay:10.37,2013-02-20 08:15:00,
2013-02-20 03:20:00,41.6,33.9,29.99,East,79,12.7,12.7,74,0.00,CLR,SKC,0.00,0.0,WeatherDisplay:10.37,2013-02-20 08:20:00,
2013-02-20 03:25:00,41.1,32.8,29.99,East,79,12.7,12.7,72,0.00,CLR,SKC,0.00,0.0,WeatherDisplay:10.37,2013-02-20 08:25:00,
2013-02-20 03:30:00,41.7,33.3,29.99,East,95,7.4,7.4,72,0.00,CLR,SKC,0.00,0.0,WeatherDisplay:10.37,2013-02-20 08:30:00,
2013-02-20 03:35:00,41.1,32.4,29.99,ESE,109,13.8,13.8,71,0.00,CLR,SKC,0.00,0.0,WeatherDisplay:10.37,2013-02-20 08:35:00,
2013-02-20 03:40:00,40.9,31.9,29.99,ENE,66,10.4,10.4,70,0.00,CLR,SKC,0.00,0.0,WeatherDisplay:10.37,2013-02-20 08:40:00,
2013-02-20 03:45:00,40.9,31.9,29.99,East,82,8.8,8.8,70,0.00,CLR,SKC,0.00,0.0,WeatherDisplay:10.37,2013-02-20 08:45:00,
2013-02-20 03:50:00,41.1,31.3,29.99,East,99,9.2,9.2,68,0.00,CLR,SKC,0.00,0.0,WeatherDisplay:10.37,2013-02-20 08:50:00,
2013-02-20 03:55:00,40.8,31.1,29.99,ENE,72,12.7,12.7,68,0.00,CLR,SKC,0.00,0.0,WeatherDisplay:10.37,2013-02-20 08:55:00,
2013-02-20 04:00:00,40.8,31.4,29.99,East,92,9.2,9.2,69,0.00,CLR,SKC,0.00,0.0,WeatherDisplay:10.37,2013-02-20 09:00:00,
2013-02-20 04:05:00,40.5,31.5,29.99,East,97,6.9,6.9,70,0.00,CLR,SKC,0.00,0.0,WeatherDisplay:10.37,2013-02-20 09:05:00,
2013-02-20 04:10:00,40.1,30.0,30.00,ENE,62,9.2,9.2,67,0.00,CLR,SKC,0.00,0.0,WeatherDisplay:10.37,2013-02-20 09:10:00,
2013-02-20 04:15:00,40.4,30.3,30.00,East,89,10.4,10.4,67,0.00,CLR,SKC,0.00,0.0,WeatherDisplay:10.37,2013-02-20 09:15:00,
2013-02-20 04:20:00,40.3,29.8,30.00,East,92,13.8,13.8,66,0.00,CLR,SKC,0.00,0.0,WeatherDisplay:10.37,2013-02-20 09:20:00,
2013-02-20 04:25:00,40.0,29.2,30.01,ESE,106,9.1,9.1,65,0.00,CLR,SKC,0.00,0.0,WeatherDisplay:10.37,2013-02-20 09:25:00,
2013-02-20 04:30:00,40.4,29.6,30.01,NNE,24,9.2,9.2,65,0.00,CLR,SKC,0.00,0.0,WeatherDisplay:10.37,2013-02-20 09:30:00,
2013-02-20 04:35:00,39.8,28.6,30.02,ENE,65,12.7,12.7,64,0.00,CLR,SKC,0.00,0.0,WeatherDisplay:10.37,2013-02-20 09:35:00,
2013-02-20 04:40:00,40.0,29.6,30.02,NE,55,11.5,11.5,66,0.00,CLR,SKC,0.00,0.0,WeatherDisplay:10.37,2013-02-20 09:40:00,
2013-02-20 04:45:00,39.4,27.8,30.02,SE,127,13.8,13.8,63,0.00,CLR,SKC,0.00,0.0,WeatherDisplay:10.37,2013-02-20 09:45:00,
2013-02-20 04:50:00,39.9,29.5,30.03,ESE,116,13.8,13.8,66,0.00,CLR,SKC,0.00,0.0,WeatherDisplay:10.37,2013-02-20 09:50:00,
2013-02-20 04:55:00,39.6,28.8,30.03,East,97,12.7,12.7,65,0.00,CLR,SKC,0.00,0.0,WeatherDisplay:10.37,2013-02-20 09:55:00,
2013-02-20 05:00:00,39.9,28.3,30.03,ESE,120,9.2,9.2,63,0.00,CLR,SKC,0.00,0.0,WeatherDisplay:10.37,2013-02-20 10:00:00,
2013-02-20 05:05:00,39.5,27.2,30.03,East,88,9.2,9.2,61,0.00,CLR,SKC,0.00,0.0,WeatherDisplay:10.37,2013-02-20 10:05:00,
2013-02-20 05:10:00,39.4,27.1,30.04,ENE,68,13.8,13.8,61,0.00,CLR,SKC,0.00,0.0,WeatherDisplay:10.37,2013-02-20 10:10:00,
2013-02-20 05:15:00,39.8,27.4,30.04,NE,52,10.4,10.4,61,0.00,CLR,SKC,0.00,0.0,WeatherDisplay:10.37,2013-02-20 10:15:00,
2013-02-20 05:20:00,39.6,27.2,30.04,ESE,117,11.5,11.5,61,0.00,CLR,SKC,0.00,0.0,WeatherDisplay:10.37,2013-02-20 10:20:00,
2013-02-20 05:25:00,39.7,26.5,30.04,East,80,7.4,7.4,59,0.00,CLR,SKC,0.00,0.0,WeatherDisplay:10.37,2013-02-20 10:25:00,
2013-02-20 05:30:00,40.2,27.8,30.05,East,82,7.0,7.0,61,0.00,CLR,SKC,0.00,0.0,WeatherDisplay:10.37,2013-02-20 10:30:00,
2013-02-20 05:35:00,39.8,26.6,30.05,East,86,11.5,11.5,59,0.00,CLR,SKC,0.00,0.0,WeatherDisplay:10.37,2013-02-20 10:35:00,
2013-02-20 05:40:00,39.5,26.3,30.05,ENE,76,6.9,6.9,59,0.00,CLR,SKC,0.00,0.0,WeatherDisplay:10.37,2013-02-20 10:40:00,
2013-02-20 05:45:00,39.7,26.5,30.05,ENE,64,7.9,7.9,59,0.00,CLR,SKC,0.00,0.0,WeatherDisplay:10.37,2013-02-20 10:45:00,
2013-02-20 05:50:00,39.6,26.0,30.05,NNE,25,12.7,12.7,58,0.00,CLR,SKC,0.00,0.0,WeatherDisplay:10.37,2013-02-20 10:50:00,
2013-02-20 05:55:00,39.5,25.9,30.06,NNE,21,9.2,9.2,58,0.00,CLR,SKC,0.00,0.0,WeatherDisplay:10.37,2013-02-20 10:55:00,
2013-02-20 06:00:00,39.6,26.0,30.06,NE,35,6.9,6.9,58,0.00,CLR,SKC,0.00,0.0,WeatherDisplay:10.37,2013-02-20 11:00:00,
2013-02-20 06:05:00,39.5,26.3,30.06,NNE,23,13.2,13.2,59,0.00,CLR,SKC,0.00,0.0,WeatherDisplay:10.37,2013-02-20 11:05:00,
2013-02-20 06:10:00,39.1,25.6,30.06,East,83,11.5,11.5,58,0.00,CLR,SKC,0.00,0.0,WeatherDisplay:10.37,2013-02-20 11:10:00,
2013-02-20 06:15:00,38.9,25.4,30.07,ESE,104,10.4,10.4,58,0.00,CLR,SKC,0.00,0.0,WeatherDisplay:10.37,2013-02-20 11:15:00,
2013-02-20 06:20:00,39.1,26.4,30.07,NE,54,6.9,6.9,60,0.00,CLR,SKC,0.00,0.0,WeatherDisplay:10.37,2013-02-20 11:20:00,
2013-02-20 06:25:00,39.0,25.9,30.07,ENE,65,10.4,10.4,59,0.00,CLR,SKC,0.00,0.0,WeatherDisplay:10.37,2013-02-20 11:25:00,
2013-02-20 06:30:00,39.0,25.0,30.08,ESE,102,9.2,9.2,57,0.00,CLR,SKC,0.00,0.0,WeatherDisplay:10.37,2013-02-20 11:30:00,
2013-02-20 06:35:00,38.6,24.7,30.07,ENE,59,12.7,12.7,57,0.00,CLR,SKC,0.00,0.0,WeatherDisplay:10.37,2013-02-20 11:35:00,
2013-02-20 06:40:00,38.8,25.3,30.08,ENE,62,5.8,6.1,58,0.00,CLR,SKC,0.00,0.0,WeatherDisplay:10.37,2013-02-20 11:40:00,
2013-02-20 06:45:00,38.8,25.3,30.08,ENE,59,10.4,10.4,58,0.00,CLR,SKC,0.00,0.0,WeatherDisplay:10.37,2013-02-20 11:45:00,
2013-02-20 06:50:00,38.6,25.5,30.08,East,85,8.1,8.1,59,0.00,CLR,SKC,0.00,0.0,WeatherDisplay:10.37,2013-02-20 11:50:00,
2013-02-20 06:55:00,38.3,24.8,30.08,NE,51,6.9,6.9,58,0.00,CLR,SKC,0.00,0.0,WeatherDisplay:10.37,2013-02-20 11:55:00,
2013-02-20 07:00:00,38.6,25.9,30.08,ENE,72,5.2,5.2,60,0.00,CLR,SKC,0.00,0.0,WeatherDisplay:10.37,2013-02-20 12:00:00,
2013-02-20 07:05:00,38.3,24.8,30.08,ENE,72,6.9,6.9,58,0.00,CLR,SKC,0.00,0.0,WeatherDisplay:10.37,2013-02-20 12:05:00,
2013-02-20 07:10:00,38.4,25.3,30.08,NE,47,4.8,4.8,59,0.00,CLR,SKC,0.00,0.0,WeatherDisplay:10.37,2013-02-20 12:10:00,
2013-02-20 07:15:00,38.8,25.7,30.08,North,4,3.7,3.7,59,0.00,CLR,SKC,0.00,0.0,WeatherDisplay:10.37,2013-02-20 12:15:00,
2013-02-20 07:20:00,38.5,25.8,30.09,NE,51,4.0,4.0,60,0.00,CLR,SKC,0.00,0.0,WeatherDisplay:10.37,2013-02-20 12:20:00,
2013-02-20 07:26:00,38.2,25.1,30.09,NNE,31,3.5,0.0,59,0.00,CLR,SKC,0.00,0.0,WeatherDisplay:10.37,2013-02-20 12:26:00,
2013-02-20 07:31:00,38.6,25.1,30.09,NE,41,6.9,6.9,58,0.00,CLR,SKC,0.00,0.0,WeatherDisplay:10.37,2013-02-20 12:31:00,
2013-02-20 07:36:00,38.8,25.7,30.09,ENE,68,3.5,3.5,59,0.00,CLR,SKC,0.00,0.0,WeatherDisplay:10.37,2013-02-20 12:36:00,
2013-02-20 07:41:00,39.1,26.0,30.10,NE,51,6.9,6.9,59,0.00,CLR,SKC,0.00,0.0,WeatherDisplay:10.37,2013-02-20 12:41:00,
2013-02-20 07:46:00,39.0,25.0,30.10,ESE,107,5.8,5.8,57,0.00,CLR,SKC,0.00,0.0,WeatherDisplay:10.37,2013-02-20 12:46:00,
2013-02-20 07:51:00,39.3,25.3,30.10,ENE,69,8.1,8.1,57,0.00,CLR,SKC,0.00,0.0,WeatherDisplay:10.37,2013-02-20 12:51:00,
2013-02-20 07:56:00,39.4,25.4,30.10,NNE,28,10.4,10.4,57,0.00,CLR,SKC,0.00,0.0,WeatherDisplay:10.37,2013-02-20 12:56:00,
2013-02-20 08:01:00,39.9,25.0,30.10,NNE,31,5.8,5.8,55,0.00,OVC,SKC,0.00,0.0,WeatherDisplay:10.37,2013-02-20 13:01:00,
2013-02-20 08:06:00,39.9,25.5,30.10,North,8,5.8,5.8,56,0.00,OVC,SKC,0.00,0.0,WeatherDisplay:10.37,2013-02-20 13:06:00,
2013-02-20 08:11:00,40.6,26.1,30.10,NE,45,5.8,5.8,56,0.00,OVC,SKC,0.00,0.0,WeatherDisplay:10.37,2013-02-20 13:11:00,
2013-02-20 08:16:00,41.1,26.1,30.11,North,11,4.6,4.6,55,0.00,OVC,SKC,0.00,0.0,WeatherDisplay:10.37,2013-02-20 13:16:00,
2013-02-20 08:21:00,40.7,24.9,30.10,ENE,66,9.2,9.2,53,0.00,OVC,SKC,0.00,0.0,WeatherDisplay:10.37,2013-02-20 13:21:00,
2013-02-20 08:26:00,41.4,26.0,30.10,East,82,8.9,8.9,54,0.00,OVC,SKC,0.00,0.0,WeatherDisplay:10.37,2013-02-20 13:26:00,
2013-02-20 08:31:00,41.3,24.5,30.11,ENE,71,8.1,8.1,51,0.00,OVC,SKC,0.00,0.0,WeatherDisplay:10.37,2013-02-20 13:31:00,
2013-02-20 08:36:00,41.7,25.4,30.11,ENE,72,9.2,9.2,52,0.00,OVC,SKC,0.00,0.0,WeatherDisplay:10.37,2013-02-20 13:36:00,
2013-02-20 08:41:00,41.9,24.6,30.11,NNE,18,6.9,6.9,50,0.00,OVC,SKC,0.00,0.0,WeatherDisplay:10.37,2013-02-20 13:41:00,
2013-02-20 08:46:00,42.6,26.2,30.11,ENE,59,6.9,6.9,52,0.00,OVC,SKC,0.00,0.0,WeatherDisplay:10.37,2013-02-20 13:46:00,
2013-02-20 08:51:00,42.9,24.5,30.11,NE,54,12.7,12.7,48,0.00,OVC,SKC,0.00,0.0,WeatherDisplay:10.37,2013-02-20 13:51:00,
2013-02-20 08:56:00,42.9,25.5,30.11,East,86,13.8,13.8,50,0.00,OVC,SKC,0.00,0.0,WeatherDisplay:10.37,2013-02-20 13:56:00,
2013-02-20 09:01:00,42.8,24.4,30.11,East,83,16.1,16.1,48,0.00,OVC,SKC,0.00,0.0,WeatherDisplay:10.37,2013-02-20 14:01:00,
2013-02-20 09:06:00,43.0,25.1,30.11,NNE,32,9.1,9.1,49,0.00,OVC,SKC,0.00,0.0,WeatherDisplay:10.37,2013-02-20 14:06:00,
2013-02-20 09:11:00,43.3,25.9,30.11,ESE,109,9.2,9.2,50,0.00,OVC,SKC,0.00,0.0,WeatherDisplay:10.37,2013-02-20 14:11:00,
2013-02-20 09:16:00,43.6,25.7,30.11,NE,42,11.5,11.5,49,0.00,OVC,SKC,0.00,0.0,WeatherDisplay:10.37,2013-02-20 14:16:00,
2013-02-20 09:21:00,43.8,26.8,30.10,ESE,103,9.2,9.2,51,0.00,OVC,SKC,0.00,0.0,WeatherDisplay:10.37,2013-02-20 14:21:00,
2013-02-20 09:26:00,44.1,26.1,30.10,NE,52,15.0,15.0,49,0.00,OVC,SKC,0.00,0.0,WeatherDisplay:10.37,2013-02-20 14:26:00,
2013-02-20 09:31:00,44.0,26.0,30.10,NE,37,8.1,8.1,49,0.00,OVC,SKC,0.00,0.0,WeatherDisplay:10.37,2013-02-20 14:31:00,
2013-02-20 09:36:00,44.6,26.6,30.10,NE,42,8.1,8.1,49,0.00,OVC,SKC,0.00,0.0,WeatherDisplay:10.37,2013-02-20 14:36:00,
2013-02-20 09:41:00,44.5,24.5,30.10,East,79,12.7,12.7,45,0.00,OVC,SKC,0.00,0.0,WeatherDisplay:10.37,2013-02-20 14:41:00,
2013-02-20 09:46:00,44.1,23.0,30.10,East,80,17.3,17.3,43,0.00,OVC,SKC,0.00,0.0,WeatherDisplay:10.37,2013-02-20 14:46:00,
2013-02-20 09:51:00,44.2,24.7,30.10,NNE,16,11.5,11.5,46,0.00,OVC,SKC,0.00,0.0,WeatherDisplay:10.37,2013-02-20 14:51:00,
2013-02-20 09:56:00,44.3,25.3,30.10,ENE,62,11.5,11.5,47,0.00,OVC,SKC,0.00,0.0,WeatherDisplay:10.37,2013-02-20 14:56:00,
2013-02-20 10:01:00,44.7,24.6,30.10,East,99,11.5,11.5,45,0.00,OVC,SKC,0.00,0.0,WeatherDisplay:10.37,2013-02-20 15:01:00,
2013-02-20 10:06:00,45.5,25.4,30.10,ENE,62,10.4,10.4,45,0.00,OVC,SKC,0.00,0.0,WeatherDisplay:10.37,2013-02-20 15:06:00,
2013-02-20 10:11:00,45.6,26.0,30.09,East,97,9.2,9.2,46,0.00,OVC,SKC,0.00,0.0,WeatherDisplay:10.37,2013-02-20 15:11:00,
2013-02-20 10:16:00,45.1,24.5,30.09,ESE,109,13.8,13.8,44,0.00,OVC,SKC,0.00,0.0,WeatherDisplay:10.37,2013-02-20 15:16:00,
2013-02-20 10:21:00,45.4,24.2,30.09,ENE,66,11.5,11.5,43,0.00,OVC,SKC,0.00,0.0,WeatherDisplay:10.37,2013-02-20 15:21:00,
2013-02-20 10:26:00,45.0,23.3,30.09,East,89,16.1,16.1,42,0.00,OVC,SKC,0.00,0.0,WeatherDisplay:10.37,2013-02-20 15:26:00,
2013-02-20 10:31:00,45.5,23.7,30.09,East,86,12.7,12.7,42,0.00,OVC,SKC,0.00,0.0,WeatherDisplay:10.37,2013-02-20 15:31:00,
2013-02-20 10:36:00,45.5,23.7,30.09,East,83,12.7,12.7,42,0.00,OVC,SKC,0.00,0.0,WeatherDisplay:10.37,2013-02-20 15:36:00,
2013-02-20 10:41:00,45.5,24.8,30.09,NE,40,13.8,13.8,44,0.00,OVC,SKC,0.00,0.0,WeatherDisplay:10.37,2013-02-20 15:41:00,
2013-02-20 10:46:00,46.1,25.4,30.09,ENE,58,12.7,12.7,44,0.00,OVC,SKC,0.00,0.0,WeatherDisplay:10.37,2013-02-20 15:46:00,
2013-02-20 10:51:00,46.8,27.6,30.09,East,86,11.5,11.5,47,0.00,OVC,SKC,0.00,0.0,WeatherDisplay:10.37,2013-02-20 15:51:00,
2013-02-20 10:56:00,46.9,26.6,30.09,NNE,14,8.1,8.1,45,0.00,OVC,SKC,0.00,0.0,WeatherDisplay:10.37,2013-02-20 15:56:00,
2013-02-20 11:01:00,46.5,25.2,30.09,ENE,66,13.8,13.8,43,0.00,OVC,SKC,0.00,0.0,WeatherDisplay:10.37,2013-02-20 16:01:00,
2013-02-20 11:06:00,46.7,26.5,30.09,ESE,106,13.8,13.8,45,0.00,OVC,SKC,0.00,0.0,WeatherDisplay:10.37,2013-02-20 16:06:00,
2013-02-20 11:11:00,47.5,26.1,30.08,NNW,339,15.0,15.0,43,0.00,OVC,SKC,0.00,0.0,WeatherDisplay:10.37,2013-02-20 16:11:00,
2013-02-20 11:16:00,47.5,28.3,30.08,NE,51,11.5,11.5,47,0.00,OVC,SKC,0.00,0.0,WeatherDisplay:10.37,2013-02-20 16:16:00,
2013-02-20 11:21:00,47.5,26.6,30.08,ENE,64,9.6,9.6,44,0.00,OVC,SKC,0.00,0.0,WeatherDisplay:10.37,2013-02-20 16:21:00,
2013-02-20 11:26:00,47.7,26.8,30.08,NE,34,11.5,11.5,44,0.00,OVC,SKC,0.00,0.0,WeatherDisplay:10.37,2013-02-20 16:26:00,
2013-02-20 11:31:00,47.6,25.6,30.08,NE,35,13.8,13.8,42,0.00,OVC,SKC,0.00,0.0,WeatherDisplay:10.37,2013-02-20 16:31:00,
2013-02-20 11:36:00,47.4,24.9,30.08,NNE,28,10.4,10.4,41,0.00,OVC,SKC,0.00,0.0,WeatherDisplay:10.37,2013-02-20 16:36:00,
2013-02-20 11:41:00,47.7,25.1,30.08,NE,45,13.8,13.8,41,0.00,OVC,SKC,0.00,0.0,WeatherDisplay:10.37,2013-02-20 16:41:00,
2013-02-20 11:46:00,48.5,28.1,30.08,NE,42,10.4,10.4,45,0.00,OVC,SKC,0.00,0.0,WeatherDisplay:10.37,2013-02-20 16:46:00,
2013-02-20 11:51:00,48.4,25.2,30.08,NE,44,11.5,11.5,40,0.00,OVC,SKC,0.00,0.0,WeatherDisplay:10.37,2013-02-20 16:51:00,
2013-02-20 11:56:00,48.5,23.4,30.07,ESE,119,16.1,16.1,37,0.00,OVC,SKC,0.00,0.0,WeatherDisplay:10.37,2013-02-20 16:56:00,
2013-02-20 12:01:00,48.2,25.6,30.07,SE,141,19.6,19.6,41,0.00,OVC,SKC,0.00,0.0,WeatherDisplay:10.37,2013-02-20 17:01:00,
2013-02-20 12:06:00,48.5,26.4,30.06,NNE,21,12.7,12.7,42,0.00,OVC,SKC,0.00,0.0,WeatherDisplay:10.37,2013-02-20 17:06:00,
2013-02-20 12:11:00,48.7,24.2,30.06,East,90,12.7,12.7,38,0.00,OVC,SKC,0.00,0.0,WeatherDisplay:10.37,2013-02-20 17:11:00,
2013-02-20 12:16:00,49.3,26.6,30.06,ENE,76,9.2,9.2,41,0.00,OVC,SKC,0.00,0.0,WeatherDisplay:10.37,2013-02-20 17:16:00,
2013-02-20 12:21:00,50.1,26.7,30.06,ENE,65,10.4,10.4,40,0.00,OVC,SKC,0.00,0.0,WeatherDisplay:10.37,2013-02-20 17:21:00,
2013-02-20 12:26:00,49.8,26.4,30.06,NNE,23,10.4,10.4,40,0.00,OVC,SKC,0.00,0.0,WeatherDisplay:10.37,2013-02-20 17:26:00,
2013-02-20 12:31:00,50.2,28.0,30.06,ENE,75,9.2,9.2,42,0.00,OVC,SKC,0.00,0.0,WeatherDisplay:10.37,2013-02-20 17:31:00,
2013-02-20 12:36:00,50.4,25.7,30.06,NE,51,11.5,11.5,38,0.00,OVC,SKC,0.00,0.0,WeatherDisplay:10.37,2013-02-20 17:36:00,
2013-02-20 12:41:00,51.0,28.1,30.06,SSE,152,8.1,8.1,41,0.00,OVC,SKC,0.00,0.0,WeatherDisplay:10.37,2013-02-20 17:41:00,
2013-02-20 12:46:00,50.0,26.0,30.05,North,8,11.5,11.5,39,0.00,OVC,SKC,0.00,0.0,WeatherDisplay:10.37,2013-02-20 17:46:00,
2013-02-20 12:51:00,49.9,25.9,30.05,SE,130,7.1,7.1,39,0.00,OVC,SKC,0.00,0.0,WeatherDisplay:10.37,2013-02-20 17:51:00,
2013-02-20 12:56:00,50.0,26.0,30.05,NNW,335,13.8,13.8,39,0.00,OVC,SKC,0.00,0.0,WeatherDisplay:10.37,2013-02-20 17:56:00,
2013-02-20 13:01:00,50.3,26.9,30.05,East,88,12.8,12.8,40,0.00,OVC,SKC,0.00,0.0,WeatherDisplay:10.37,2013-02-20 18:01:00,
2013-02-20 13:06:00,50.3,24.3,30.04,NNE,17,15.0,15.0,36,0.00,OVC,SKC,0.00,0.0,WeatherDisplay:10.37,2013-02-20 18:06:00,
2013-02-20 13:11:00,50.7,26.0,30.04,ENE,61,11.5,11.5,38,0.00,OVC,SKC,0.00,0.0,WeatherDisplay:10.37,2013-02-20 18:11:00,
2013-02-20 13:16:00,51.0,26.9,30.03,NNW,340,12.7,12.7,39,0.00,OVC,SKC,0.00,0.0,WeatherDisplay:10.37,2013-02-20 18:16:00,
2013-02-20 13:21:00,50.7,26.6,30.03,NE,35,9.2,9.2,39,0.00,OVC,SKC,0.00,0.0,WeatherDisplay:10.37,2013-02-20 18:21:00,
2013-02-20 13:26:00,50.6,23.9,30.03,ENE,75,16.1,16.1,35,0.00,OVC,SKC,0.00,0.0,WeatherDisplay:10.37,2013-02-20 18:26:00,
2013-02-20 13:31:00,51.0,26.3,30.03,North,6,10.1,10.1,38,0.00,OVC,SKC,0.00,0.0,WeatherDisplay:10.37,2013-02-20 18:31:00,
2013-02-20 13:36:00,50.8,25.4,30.02,ENE,72,17.3,17.3,37,0.00,OVC,SKC,0.00,0.0,WeatherDisplay:10.37,2013-02-20 18:36:00,
2013-02-20 13:41:00,50.8,25.4,30.02,ENE,65,13.8,13.8,37,0.00,OVC,SKC,0.00,0.0,WeatherDisplay:10.37,2013-02-20 18:41:00,
2013-02-20 13:46:00,50.4,24.4,30.02,NNE,18,16.1,16.1,36,0.00,OVC,SKC,0.00,0.0,WeatherDisplay:10.37,2013-02-20 18:46:00,
2013-02-20 13:51:00,51.4,25.3,30.02,NE,41,11.5,11.5,36,0.00,OVC,SKC,0.00,0.0,WeatherDisplay:10.37,2013-02-20 18:51:00,
2013-02-20 13:56:00,50.7,25.3,30.02,NNW,344,10.1,10.1,37,0.00,OVC,SKC,0.00,0.0,WeatherDisplay:10.37,2013-02-20 18:56:00,
2013-02-20 14:01:00,51.0,25.0,30.02,ESE,107,12.7,12.7,36,0.00,OVC,SKC,0.00,0.0,WeatherDisplay:10.37,2013-02-20 19:01:00,
2013-02-20 14:06:00,51.6,26.1,30.02,NE,41,12.7,12.7,37,0.00,OVC,SKC,0.00,0.0,WeatherDisplay:10.37,2013-02-20 19:06:00,
2013-02-20 14:11:00,51.8,26.3,30.02,ESE,116,11.5,11.5,37,0.00,OVC,SKC,0.00,0.0,WeatherDisplay:10.37,2013-02-20 19:11:00,
2013-02-20 14:16:00,51.2,24.5,30.02,NE,40,16.1,16.1,35,0.00,OVC,SKC,0.00,0.0,WeatherDisplay:10.37,2013-02-20 19:16:00,
2013-02-20 14:21:00,51.8,25.0,30.01,NNE,28,11.5,11.5,35,0.00,OVC,SKC,0.00,0.0,WeatherDisplay:10.37,2013-02-20 19:21:00,
2013-02-20 14:26:00,52.2,25.3,30.02,North,349,10.4,10.4,35,0.00,OVC,SKC,0.00,0.0,WeatherDisplay:10.37,2013-02-20 19:26:00,
2013-02-20 14:31:00,52.6,26.4,30.01,SE,138,14.3,14.3,36,0.00,OVC,SKC,0.00,0.0,WeatherDisplay:10.37,2013-02-20 19:31:00,
2013-02-20 14:36:00,53.0,28.0,30.01,ESE,104,9.2,9.2,38,0.00,OVC,SKC,0.00,0.0,WeatherDisplay:10.37,2013-02-20 19:36:00,
2013-02-20 14:41:00,52.2,25.3,30.02,ENE,64,15.0,15.0,35,0.00,OVC,SKC,0.00,0.0,WeatherDisplay:10.37,2013-02-20 19:41:00,
2013-02-20 14:46:00,52.2,26.7,30.01,East,79,12.2,12.2,37,0.00,OVC,SKC,0.00,0.0,WeatherDisplay:10.37,2013-02-20 19:46:00,
2013-02-20 14:51:00,52.7,26.5,30.01,ESE,116,8.1,8.1,36,0.00,OVC,SKC,0.00,0.0,WeatherDisplay:10.37,2013-02-20 19:51:00,
2013-02-20 14:56:00,53.2,27.6,30.01,NNE,17,8.1,8.1,37,0.00,OVC,SKC,0.00,0.0,WeatherDisplay:10.37,2013-02-20 19:56:00,
2013-02-20 15:01:00,52.8,27.2,30.02,NNW,337,11.5,11.5,37,0.00,OVC,SKC,0.00,0.0,WeatherDisplay:10.37,2013-02-20 20:01:00,
2013-02-20 15:06:00,53.0,28.0,30.01,East,100,11.5,11.5,38,0.00,OVC,SKC,0.00,0.0,WeatherDisplay:10.37,2013-02-20 20:06:00,
2013-02-20 15:11:00,53.0,28.0,30.01,NE,51,8.1,8.1,38,0.00,OVC,SKC,0.00,0.0,WeatherDisplay:10.37,2013-02-20 20:11:00,
2013-02-20 15:16:00,52.9,25.3,30.01,ENE,73,16.1,16.1,34,0.00,OVC,SKC,0.00,0.0,WeatherDisplay:10.37,2013-02-20 20:16:00,
2013-02-20 15:21:00,52.6,27.0,30.01,NE,48,8.6,8.6,37,0.00,OVC,SKC,0.00,0.0,WeatherDisplay:10.37,2013-02-20 20:21:00,
2013-02-20 15:26:00,52.8,24.5,30.01,ESE,121,15.8,15.8,33,0.00,OVC,SKC,0.00,0.0,WeatherDisplay:10.37,2013-02-20 20:26:00,
2013-02-20 15:31:00,52.7,25.1,30.01,NE,56,12.7,12.7,34,0.00,OVC,SKC,0.00,0.0,WeatherDisplay:10.37,2013-02-20 20:31:00,
2013-02-20 15:36:00,53.1,24.7,30.01,ESE,119,9.2,9.2,33,0.00,OVC,SKC,0.00,0.0,WeatherDisplay:10.37,2013-02-20 20:36:00,
2013-02-20 15:41:00,53.4,26.4,30.01,East,88,11.5,11.5,35,0.00,OVC,SKC,0.00,0.0,WeatherDisplay:10.37,2013-02-20 20:41:00,
2013-02-20 15:46:00,53.2,25.5,30.01,NNE,13,9.2,9.2,34,0.00,OVC,SKC,0.00,0.0,WeatherDisplay:10.37,2013-02-20 20:46:00,
2013-02-20 15:51:00,52.9,23.8,30.01,North,359,11.5,11.5,32,0.00,OVC,SKC,0.00,0.0,WeatherDisplay:10.37,2013-02-20 20:51:00,
2013-02-20 15:56:00,53.5,26.5,30.01,NE,54,4.7,4.7,35,0.00,OVC,SKC,0.00,0.0,WeatherDisplay:10.37,2013-02-20 20:56:00,
2013-02-20 16:01:00,52.9,24.5,30.01,NNE,13,12.7,12.7,33,0.00,CLR,SKC,0.00,0.0,WeatherDisplay:10.37,2013-02-20 21:01:00,
2013-02-20 16:06:00,53.3,24.9,30.01,ENE,68,11.5,11.5,33,0.00,CLR,SKC,0.00,0.0,WeatherDisplay:10.37,2013-02-20 21:06:00,
2013-02-20 16:11:00,53.2,24.1,30.01,NNE,25,8.4,8.4,32,0.00,CLR,SKC,0.00,0.0,WeatherDisplay:10.37,2013-02-20 21:11:00,
2013-02-20 16:16:00,52.8,24.5,30.01,North,350,10.4,10.4,33,0.00,CLR,SKC,0.00,0.0,WeatherDisplay:10.37,2013-02-20 21:16:00,
2013-02-20 16:21:00,52.7,24.4,30.01,NNW,329,13.8,13.8,33,0.00,CLR,SKC,0.00,0.0,WeatherDisplay:10.37,2013-02-20 21:21:00,
2013-02-20 16:26:00,53.6,25.2,30.01,NE,51,8.1,8.1,33,0.00,CLR,SKC,0.00,0.0,WeatherDisplay:10.37,2013-02-20 21:26:00,
2013-02-20 16:31:00,53.3,25.6,30.01,NNE,16,11.5,11.5,34,0.00,CLR,SKC,0.00,0.0,WeatherDisplay:10.37,2013-02-20 21:31:00,
2013-02-20 16:36:00,53.2,26.2,30.02,ESE,119,8.1,8.1,35,0.00,CLR,SKC,0.00,0.0,WeatherDisplay:10.37,2013-02-20 21:36:00,
2013-02-20 16:41:00,53.0,25.3,30.01,East,97,10.4,10.4,34,0.00,CLR,SKC,0.00,0.0,WeatherDisplay:10.37,2013-02-20 21:41:00,
2013-02-20 16:46:00,53.2,26.2,30.02,ENE,75,5.8,5.8,35,0.00,CLR,SKC,0.00,0.0,WeatherDisplay:10.37,2013-02-20 21:46:00,
2013-02-20 16:51:00,52.9,26.6,30.02,NNW,332,8.1,8.1,36,0.00,CLR,SKC,0.00,0.0,WeatherDisplay:10.37,2013-02-20 21:51:00,
2013-02-20 16:56:00,53.1,26.1,30.02,NE,40,5.2,5.2,35,0.00,CLR,SKC,0.00,0.0,WeatherDisplay:10.37,2013-02-20 21:56:00,
2013-02-20 17:01:00,52.7,25.8,30.02,NNW,342,6.9,6.9,35,0.00,CLR,SKC,0.00,0.0,WeatherDisplay:10.37,2013-02-20 22:01:00,
2013-02-20 17:06:00,52.4,26.2,30.02,NNE,28,4.6,0.0,36,0.00,CLR,SKC,0.00,0.0,WeatherDisplay:10.37,2013-02-20 22:06:00,
2013-02-20 17:11:00,52.2,25.3,30.02,East,90,5.8,5.8,35,0.00,CLR,SKC,0.00,0.0,WeatherDisplay:10.37,2013-02-20 22:11:00,
2013-02-20 17:16:00,52.6,27.0,30.02,NNE,14,4.6,4.6,37,0.00,CLR,SKC,0.00,0.0,WeatherDisplay:10.37,2013-02-20 22:16:00,
2013-02-20 17:21:00,52.6,26.4,30.03,ENE,58,3.5,3.5,36,0.00,CLR,SKC,0.00,0.0,WeatherDisplay:10.37,2013-02-20 22:21:00,
2013-02-20 17:26:00,52.6,27.0,30.03,North,359,4.6,4.6,37,0.00,CLR,SKC,0.00,0.0,WeatherDisplay:10.37,2013-02-20 22:26:00,
2013-02-20 17:31:00,52.1,26.6,30.03,NNE,17,5.3,5.3,37,0.00,CLR,SKC,0.00,0.0,WeatherDisplay:10.37,2013-02-20 22:31:00,
2013-02-20 17:36:00,51.7,27.5,30.03,ENE,65,4.6,4.6,39,0.00,CLR,SKC,0.00,0.0,WeatherDisplay:10.37,2013-02-20 22:36:00,
2013-02-20 17:41:00,51.4,27.2,30.03,ENE,64,4.6,4.6,39,0.00,CLR,SKC,0.00,0.0,WeatherDisplay:10.37,2013-02-20 22:41:00,
2013-02-20 17:47:00,51.3,27.8,30.04,ENE,59,2.7,2.7,40,0.00,CLR,SKC,0.00,0.0,WeatherDisplay:10.37,2013-02-20 22:47:00,
2013-02-20 17:52:00,50.6,26.5,30.04,NNE,16,3.5,3.5,39,0.00,CLR,SKC,0.00,0.0,WeatherDisplay:10.37,2013-02-20 22:52:00,
2013-02-20 17:57:00,50.4,26.3,30.04,North,352,5.8,5.8,39,0.00,CLR,SKC,0.00,0.0,WeatherDisplay:10.37,2013-02-20 22:57:00,
2013-02-20 18:02:00,50.0,27.2,30.04,NNE,18,4.6,4.6,41,0.00,CLR,SKC,0.00,0.0,WeatherDisplay:10.37,2013-02-20 23:02:00,
2013-02-20 18:07:00,49.8,27.0,30.05,NE,38,4.6,4.6,41,0.00,CLR,SKC,0.00,0.0,WeatherDisplay:10.37,2013-02-20 23:07:00,
2013-02-20 18:12:00,49.5,26.7,30.05,NNE,18,4.0,4.0,41,0.00,CLR,SKC,0.00,0.0,WeatherDisplay:10.37,2013-02-20 23:12:00,
2013-02-20 18:17:00,49.3,27.2,30.05,NNE,28,2.3,2.6,42,0.00,CLR,SKC,0.00,0.0,WeatherDisplay:10.37,2013-02-20 23:17:00,
2013-02-20 18:22:00,48.9,26.8,30.06,NNE,20,2.7,2.7,42,0.00,CLR,SKC,0.00,0.0,WeatherDisplay:10.37,2013-02-20 23:22:00,
2013-02-20 18:27:00,49.1,27.0,30.05,NNE,24,2.3,2.6,42,0.00,CLR,SKC,0.00,0.0,WeatherDisplay:10.37,2013-02-20 23:27:00,
2013-02-20 18:32:00,48.9,26.8,30.05,NNE,21,0.0,0.0,42,0.00,CLR,SKC,0.00,0.0,WeatherDisplay:10.37,2013-02-20 23:32:00,
2013-02-20 18:37:00,48.9,28.5,30.05,NNE,21,0.0,0.0,45,0.00,CLR,SKC,0.00,0.0,WeatherDisplay:10.37,2013-02-20 23:37:00,
2013-02-20 18:42:00,48.6,28.7,30.05,NNE,21,0.0,0.0,46,0.00,CLR,SKC,0.00,0.0,WeatherDisplay:10.37,2013-02-20 23:42:00,
2013-02-20 18:47:00,48.5,28.6,30.05,NNE,21,0.0,0.0,46,0.00,CLR,SKC,0.00,0.0,WeatherDisplay:10.37,2013-02-20 23:47:00,
2013-02-20 18:52:00,48.5,28.6,30.06,NNE,21,0.0,0.0,46,0.00,CLR,SKC,0.00,0.0,WeatherDisplay:10.37,2013-02-20 23:52:00,
2013-02-20 18:57:00,48.3,29.0,30.06,North,360,0.0,0.0,47,0.00,CLR,SKC,0.00,0.0,WeatherDisplay:10.37,2013-02-20 23:57:00,
2013-02-20 19:02:00,47.5,28.8,30.06,North,8,1.5,0.0,48,0.00,CLR,SKC,0.00,0.0,WeatherDisplay:10.37,2013-02-21 00:02:00,
2013-02-20 19:07:00,47.3,28.6,30.06,East,82,0.0,0.0,48,0.00,CLR,SKC,0.00,0.0,WeatherDisplay:10.37,2013-02-21 00:07:00,
2013-02-20 19:12:00,47.3,29.6,30.06,East,82,0.0,0.0,50,0.00,CLR,SKC,0.00,0.0,WeatherDisplay:10.37,2013-02-21 00:12:00,
2013-02-20 19:17:00,46.8,28.6,30.06,East,82,0.0,0.0,49,0.00,CLR,SKC,0.00,0.0,WeatherDisplay:10.37,2013-02-21 00:17:00,
2013-02-20 19:22:00,45.2,30.0,30.06,East,82,0.0,0.0,55,0.00,CLR,SKC,0.00,0.0,WeatherDisplay:10.37,2013-02-21 00:22:00,
2013-02-20 19:27:00,43.9,31.7,30.06,East,82,0.0,0.0,62,0.00,CLR,SKC,0.00,0.0,WeatherDisplay:10.37,2013-02-21 00:27:00,
2013-02-20 19:32:00,42.3,31.4,30.07,East,82,0.0,0.0,65,0.00,CLR,SKC,0.00,0.0,WeatherDisplay:10.37,2013-02-21 00:32:00,
2013-02-20 19:37:00,41.7,30.8,30.07,East,82,0.0,0.0,65,0.00,CLR,SKC,0.00,0.0,WeatherDisplay:10.37,2013-02-21 00:37:00,
2013-02-20 19:42:00,41.8,30.5,30.07,East,82,0.0,0.0,64,0.00,CLR,SKC,0.00,0.0,WeatherDisplay:10.37,2013-02-21 00:42:00,
2013-02-20 19:47:00,41.6,31.1,30.07,East,82,0.0,0.0,66,0.00,CLR,SKC,0.00,0.0,WeatherDisplay:10.37,2013-02-21 00:47:00,
2013-02-20 19:52:00,41.6,31.4,30.07,East,82,0.0,0.0,67,0.00,CLR,SKC,0.00,0.0,WeatherDisplay:10.37,2013-02-21 00:52:00,
2013-02-20 19:57:00,41.1,32.4,30.07,East,82,0.0,0.0,71,0.00,CLR,SKC,0.00,0.0,WeatherDisplay:10.37,2013-02-21 00:57:00,
2013-02-20 20:02:00,40.7,31.0,30.07,East,82,0.0,0.0,68,0.00,CLR,SKC,0.00,0.0,WeatherDisplay:10.37,2013-02-21 01:02:00,
2013-02-20 20:07:00,40.4,31.0,30.07,East,82,0.0,0.0,69,0.00,CLR,SKC,0.00,0.0,WeatherDisplay:10.37,2013-02-21 01:07:00,
2013-02-20 20:12:00,40.6,30.5,30.07,North,353,5.8,5.8,67,0.00,CLR,SKC,0.00,0.0,WeatherDisplay:10.37,2013-02-21 01:12:00,
2013-02-20 20:17:00,40.8,30.7,30.07,WNW,295,2.3,0.0,67,0.00,CLR,SKC,0.00,0.0,WeatherDisplay:10.37,2013-02-21 01:17:00,
2013-02-20 20:22:00,40.5,31.8,30.08,WNW,295,0.0,0.0,71,0.00,CLR,SKC,0.00,0.0,WeatherDisplay:10.37,2013-02-21 01:22:00,
2013-02-20 20:27:00,39.5,31.2,30.08,WNW,295,0.0,0.0,72,0.00,CLR,SKC,0.00,0.0,WeatherDisplay:10.37,2013-02-21 01:27:00,
2013-02-20 20:32:00,38.8,30.9,30.08,WNW,295,0.0,0.0,73,0.00,CLR,SKC,0.00,0.0,WeatherDisplay:10.37,2013-02-21 01:32:00,
2013-02-20 20:37:00,38.5,30.9,30.08,WNW,295,0.0,0.0,74,0.00,CLR,SKC,0.00,0.0,WeatherDisplay:10.37,2013-02-21 01:37:00,
2013-02-20 20:43:00,38.6,31.4,30.08,WNW,295,0.0,0.0,75,0.00,CLR,SKC,0.00,0.0,WeatherDisplay:10.37,2013-02-21 01:43:00,
2013-02-20 20:48:00,37.8,30.9,30.09,WNW,295,0.0,0.0,76,0.00,CLR,SKC,0.00,0.0,WeatherDisplay:10.37,2013-02-21 01:48:00,
2013-02-20 20:53:00,37.7,31.8,30.09,WNW,295,0.0,0.0,79,0.00,CLR,SKC,0.00,0.0,WeatherDisplay:10.37,2013-02-21 01:53:00,
2013-02-20 20:58:00,37.8,31.9,30.09,WNW,295,0.0,0.0,79,0.00,CLR,SKC,0.00,0.0,WeatherDisplay:10.37,2013-02-21 01:58:00,
2013-02-20 21:03:00,38.1,32.5,30.09,WNW,295,0.0,0.0,80,0.00,CLR,SKC,0.00,0.0,WeatherDisplay:10.37,2013-02-21 02:03:00,
2013-02-20 21:08:00,37.6,32.3,30.10,SE,131,4.6,4.6,81,0.00,CLR,SKC,0.00,0.0,WeatherDisplay:10.37,2013-02-21 02:08:00,
2013-02-20 21:13:00,36.6,31.9,30.10,East,96,2.8,2.8,83,0.00,CLR,SKC,0.00,0.0,WeatherDisplay:10.37,2013-02-21 02:13:00,
2013-02-20 21:18:00,36.6,31.3,30.11,East,97,0.0,0.0,81,0.00,CLR,SKC,0.00,0.0,WeatherDisplay:10.37,2013-02-21 02:18:00,
2013-02-20 21:23:00,36.7,31.4,30.11,East,97,0.0,0.0,81,0.00,CLR,SKC,0.00,0.0,WeatherDisplay:10.37,2013-02-21 02:23:00,
2013-02-20 21:28:00,36.7,31.7,30.11,East,97,0.0,0.0,82,0.00,CLR,SKC,0.00,0.0,WeatherDisplay:10.37,2013-02-21 02:28:00,
2013-02-20 21:33:00,36.8,31.5,30.11,East,97,0.0,0.0,81,0.00,CLR,SKC,0.00,0.0,WeatherDisplay:10.37,2013-02-21 02:33:00,
2013-02-20 21:38:00,36.7,31.4,30.11,East,97,0.0,0.0,81,0.00,CLR,SKC,0.00,0.0,WeatherDisplay:10.37,2013-02-21 02:38:00,
2013-02-20 21:43:00,36.8,31.2,30.12,NNW,332,0.0,0.0,80,0.00,CLR,SKC,0.00,0.0,WeatherDisplay:10.37,2013-02-21 02:43:00,
2013-02-20 21:48:00,36.9,31.6,30.12,NNW,332,0.0,0.0,81,0.00,CLR,SKC,0.00,0.0,WeatherDisplay:10.37,2013-02-21 02:48:00,
2013-02-20 21:53:00,36.8,31.8,30.12,NNW,332,0.0,0.0,82,0.00,CLR,SKC,0.00,0.0,WeatherDisplay:10.37,2013-02-21 02:53:00,
2013-02-20 21:58:00,36.8,31.8,30.13,NNW,332,0.0,0.0,82,0.00,CLR,SKC,0.00,0.0,WeatherDisplay:10.37,2013-02-21 02:58:00,
2013-02-20 22:03:00,36.4,31.1,30.13,NNW,332,0.0,0.0,81,0.00,CLR,SKC,0.00,0.0,WeatherDisplay:10.37,2013-02-21 03:03:00,
2013-02-20 22:08:00,36.1,29.6,30.13,NNW,332,0.0,0.0,77,0.00,CLR,SKC,0.00,0.0,WeatherDisplay:10.37,2013-02-21 03:08:00,
2013-02-20 22:13:00,37.8,29.6,30.14,SE,141,5.8,5.8,72,0.00,CLR,SKC,0.00,0.0,WeatherDisplay:10.37,2013-02-21 03:13:00,
2013-02-20 22:18:00,38.2,28.9,30.13,South,186,5.8,5.8,69,0.00,CLR,SKC,0.00,0.0,WeatherDisplay:10.37,2013-02-21 03:18:00,
2013-02-20 22:23:00,39.0,27.5,30.14,South,181,4.6,4.6,63,0.00,CLR,SKC,0.00,0.0,WeatherDisplay:10.37,2013-02-21 03:23:00,
2013-02-20 22:28:00,39.7,27.7,30.13,South,178,4.6,4.6,62,0.00,CLR,SKC,0.00,0.0,WeatherDisplay:10.37,2013-02-21 03:28:00,
2013-02-20 22:33:00,40.0,28.0,30.13,South,188,5.8,5.8,62,0.00,CLR,SKC,0.00,0.0,WeatherDisplay:10.37,2013-02-21 03:33:00,
2013-02-20 22:38:00,40.6,27.4,30.13,SE,136,8.1,8.1,59,0.00,CLR,SKC,0.00,0.0,WeatherDisplay:10.37,2013-02-21 03:38:00,
2013-02-20 22:43:00,40.5,27.3,30.13,SE,141,5.8,5.8,59,0.00,CLR,SKC,0.00,0.0,WeatherDisplay:10.37,2013-02-21 03:43:00,
2013-02-20 22:48:00,40.1,26.5,30.13,SE,127,6.9,6.9,58,0.00,CLR,SKC,0.00,0.0,WeatherDisplay:10.37,2013-02-21 03:48:00,
2013-02-20 22:53:00,40.2,26.6,30.13,SSE,150,5.8,5.8,58,0.00,CLR,SKC,0.00,0.0,WeatherDisplay:10.37,2013-02-21 03:53:00,
2013-02-20 22:58:00,40.0,26.4,30.13,SE,131,5.2,5.2,58,0.00,CLR,SKC,0.00,0.0,WeatherDisplay:10.37,2013-02-21 03:58:00,
2013-02-20 23:03:00,40.1,26.9,30.14,SE,134,6.9,6.9,59,0.00,CLR,SKC,0.00,0.0,WeatherDisplay:10.37,2013-02-21 04:03:00,
2013-02-20 23:08:00,39.5,26.3,30.14,SE,138,6.9,6.9,59,0.00,CLR,SKC,0.00,0.0,WeatherDisplay:10.37,2013-02-21 04:08:00,
2013-02-20 23:13:00,39.6,26.0,30.14,SSE,147,10.5,10.5,58,0.00,CLR,SKC,0.00,0.0,WeatherDisplay:10.37,2013-02-21 04:13:00,
2013-02-20 23:18:00,39.5,25.9,30.13,SE,143,9.2,9.2,58,0.00,CLR,SKC,0.00,0.0,WeatherDisplay:10.37,2013-02-21 04:18:00,
2013-02-20 23:23:00,39.8,25.4,30.13,SSE,155,9.2,9.2,56,0.00,CLR,SKC,0.00,0.0,WeatherDisplay:10.37,2013-02-21 04:23:00,
2013-02-20 23:29:00,40.1,26.1,30.13,SSE,162,8.1,8.1,57,0.00,CLR,SKC,0.00,0.0,WeatherDisplay:10.37,2013-02-21 04:29:00,
2013-02-20 23:34:00,40.1,25.6,30.13,ESE,121,6.9,6.9,56,0.00,CLR,SKC,0.00,0.0,WeatherDisplay:10.37,2013-02-21 04:34:00,
2013-02-20 23:39:00,40.1,26.1,30.14,SE,145,6.9,6.9,57,0.00,CLR,SKC,0.00,0.0,WeatherDisplay:10.37,2013-02-21 04:39:00,
2013-02-20 23:45:00,39.6,25.6,30.13,SSE,152,8.1,8.1,57,0.00,CLR,SKC,0.00,0.0,WeatherDisplay:10.37,2013-02-21 04:45:00,
2013-02-20 23:50:00,39.7,25.7,30.13,SSE,150,8.1,8.1,57,0.00,CLR,SKC,0.00,0.0,WeatherDisplay:10.37,2013-02-21 04:50:00,
2013-02-20 23:56:00,39.7,24.8,30.13,SSE,154,9.2,9.2,55,0.00,CLR,SKC,0.00,0.0,WeatherDisplay:10.37,2013-02-21 04:56:00,